createdAt,value
2022-11-24T00:00:34.087Z,1.40
2022-11-24T00:03:19.574Z,1.33
2022-11-24T00:06:10.986Z,1.33
2022-11-24T00:08:56.750Z,1.70
2022-11-24T00:11:42.012Z,1.23
2022-11-24T00:14:27.409Z,1.40
2022-11-24T00:17:12.929Z,1.40
2022-11-24T00:19:58.668Z,1.30
2022-11-24T00:22:44.173Z,1.60
2022-11-24T00:25:29.785Z,1.60
2022-11-24T00:28:15.438Z,1.70
2022-11-24T00:31:01.694Z,1.67
2022-11-24T00:33:49.008Z,1.50
2022-11-24T00:36:35.852Z,1.60
2022-11-24T00:39:21.167Z,1.80
2022-11-24T00:42:06.792Z,1.52
2022-11-24T00:44:52.261Z,1.60
2022-11-24T00:47:37.841Z,1.60
2022-11-24T00:50:23.480Z,1.50
2022-11-24T00:53:09.208Z,1.40
2022-11-24T00:55:55.821Z,1.60
2022-11-24T00:58:41.809Z,1.60
2022-11-24T01:01:30.257Z,1.77
2022-11-24T01:04:15.709Z,1.50
2022-11-24T01:07:01.073Z,1.67
2022-11-24T01:09:46.703Z,1.63
2022-11-24T01:12:32.404Z,1.47
2022-11-24T01:15:17.732Z,1.60
2022-11-24T01:18:04.151Z,1.70
2022-11-24T01:20:49.500Z,1.60
2022-11-24T01:23:35.209Z,1.60
2022-11-24T01:26:21.965Z,1.80
2022-11-24T01:29:07.446Z,1.60
2022-11-24T01:31:52.634Z,1.90
2022-11-24T01:34:38.103Z,1.97
2022-11-24T01:37:23.565Z,1.73
2022-11-24T01:40:09.891Z,1.30
2022-11-24T01:42:55.464Z,2.00
2022-11-24T01:45:41.431Z,2.00
2022-11-24T01:48:32.640Z,2.00
2022-11-24T01:51:22.962Z,2.30
2022-11-24T01:54:19.755Z,2.37
2022-11-24T01:57:41.252Z,2.73
2022-11-24T02:00:26.491Z,2.50
2022-11-24T02:03:18.219Z,2.40
2022-11-24T02:06:13.091Z,1.80
2022-11-24T02:09:06.974Z,2.07
2022-11-24T02:11:54.349Z,1.60
2022-11-24T02:14:41.797Z,1.57
2022-11-24T02:17:27.200Z,1.30
2022-11-24T02:20:14.543Z,1.10
2022-11-24T02:23:02.820Z,1.60
2022-11-24T02:25:59.573Z,1.60
2022-11-24T02:28:45.953Z,1.20
2022-11-24T02:31:32.037Z,1.20
2022-11-24T02:34:17.569Z,1.17
2022-11-24T02:37:03.413Z,1.00
2022-11-24T02:39:49.052Z,1.00
2022-11-24T02:42:41.019Z,1.03
2022-11-24T02:45:27.853Z,1.40
2022-11-24T02:48:14.930Z,1.40
2022-11-24T02:51:00.088Z,1.37
2022-11-24T02:53:45.758Z,1.27
2022-11-24T02:56:31.119Z,1.10
2022-11-24T02:59:16.553Z,1.30
2022-11-24T03:02:02.970Z,1.10
2022-11-24T03:04:48.696Z,1.20
2022-11-24T03:07:34.251Z,1.00
2022-11-24T03:10:20.006Z,1.10
2022-11-24T03:13:05.341Z,1.10
2022-11-24T03:15:50.614Z,0.80
2022-11-24T03:18:36.214Z,0.90
2022-11-24T03:21:21.767Z,1.33
2022-11-24T03:24:07.377Z,1.20
2022-11-24T03:26:52.648Z,1.00
2022-11-24T03:29:38.197Z,1.00
2022-11-24T03:32:23.736Z,0.90
2022-11-24T03:35:09.579Z,0.80
2022-11-24T03:37:54.795Z,0.80
2022-11-24T03:40:40.265Z,0.70
2022-11-24T03:43:25.731Z,0.80
2022-11-24T03:46:12.339Z,0.70
2022-11-24T03:48:57.721Z,0.60
2022-11-24T03:51:43.377Z,0.70
2022-11-24T03:54:28.739Z,0.70
2022-11-24T03:57:14.317Z,0.93
2022-11-24T03:59:59.984Z,0.90
2022-11-24T04:02:45.586Z,0.60
2022-11-24T04:05:32.571Z,0.70
2022-11-24T04:08:18.373Z,1.10
2022-11-24T04:11:04.305Z,0.80
2022-11-24T04:13:50.024Z,0.80
2022-11-24T04:16:35.617Z,0.95
2022-11-24T04:19:21.200Z,0.90
2022-11-24T04:22:06.642Z,0.93
2022-11-24T04:24:52.160Z,0.90
2022-11-24T04:27:38.133Z,0.70
2022-11-24T04:30:25.219Z,1.00
2022-11-24T04:33:11.293Z,1.07
2022-11-24T04:35:56.993Z,0.80
2022-11-24T04:39:24.333Z,0.80
2022-11-24T04:41:48.219Z,0.70
2022-11-24T04:44:33.912Z,0.80
2022-11-24T04:47:22.070Z,1.00
2022-11-24T04:50:08.776Z,0.87
2022-11-24T04:52:54.133Z,1.00
2022-11-24T04:55:40.500Z,0.97
2022-11-24T04:58:25.823Z,0.83
2022-11-24T05:01:11.428Z,0.80
2022-11-24T05:03:57.770Z,0.80
2022-11-24T05:06:43.172Z,1.13
2022-11-24T05:09:47.953Z,1.00
2022-11-24T05:12:33.925Z,1.13
2022-11-24T05:15:19.104Z,0.93
2022-11-24T05:18:17.461Z,1.30
2022-11-24T05:21:02.694Z,1.30
2022-11-24T05:23:48.163Z,1.13
2022-11-24T05:26:35.513Z,0.90
2022-11-24T05:29:20.781Z,1.20
2022-11-24T05:32:07.129Z,1.27
2022-11-24T05:34:53.942Z,1.13
2022-11-24T05:37:39.273Z,1.50
2022-11-24T05:40:25.601Z,1.53
2022-11-24T05:43:15.894Z,1.67
2022-11-24T05:46:01.942Z,2.33
2022-11-24T05:48:47.123Z,1.63
2022-11-24T05:51:33.400Z,2.10
2022-11-24T05:54:18.675Z,1.50
2022-11-24T05:57:04.523Z,1.50
2022-11-24T05:59:49.871Z,1.93
2022-11-24T06:02:35.512Z,1.80
2022-11-24T06:05:21.772Z,1.60
2022-11-24T06:08:07.317Z,1.70
2022-11-24T06:10:52.970Z,1.67
2022-11-24T06:13:41.524Z,1.53
2022-11-24T06:16:27.037Z,1.70
2022-11-24T06:19:12.737Z,1.60
2022-11-24T06:21:58.289Z,1.40
2022-11-24T06:24:43.502Z,1.60
2022-11-24T06:27:28.890Z,1.80
2022-11-24T06:30:15.128Z,1.63
2022-11-24T06:33:00.962Z,1.50
2022-11-24T06:35:46.456Z,1.87
2022-11-24T06:38:32.616Z,1.30
2022-11-24T06:41:18.508Z,1.60
2022-11-24T06:44:04.968Z,1.70
2022-11-24T06:46:50.120Z,1.63
2022-11-24T06:49:35.808Z,1.50
2022-11-24T06:52:21.335Z,1.50
2022-11-24T06:55:07.432Z,1.70
2022-11-24T06:57:52.981Z,1.83
2022-11-24T07:00:38.979Z,1.57
2022-11-24T07:03:24.643Z,2.07
2022-11-24T07:06:10.142Z,2.00
2022-11-24T07:08:55.473Z,2.17
2022-11-24T07:11:41.581Z,1.92
2022-11-24T07:14:26.828Z,2.20
2022-11-24T07:17:12.574Z,3.17
2022-11-24T07:19:57.520Z,1.90
2022-11-24T07:22:43.106Z,2.10
2022-11-24T07:25:28.795Z,1.90
2022-11-24T07:28:14.673Z,2.55
2022-11-24T07:31:11.756Z,2.63
2022-11-24T07:33:58.058Z,2.77
2022-11-24T07:36:45.132Z,1.90
2022-11-24T07:39:30.584Z,1.50
2022-11-24T07:42:16.077Z,1.55
2022-11-24T07:45:01.813Z,1.98
2022-11-24T07:47:47.018Z,1.83
2022-11-24T07:50:32.541Z,2.10
2022-11-24T07:53:19.091Z,2.33
2022-11-24T07:56:06.404Z,2.30
2022-11-24T07:58:53.086Z,1.80
2022-11-24T08:01:39.344Z,1.98
2022-11-24T08:04:24.794Z,2.45
2022-11-24T08:07:10.450Z,2.38
2022-11-24T08:09:55.895Z,2.20
2022-11-24T08:12:43.821Z,2.75
2022-11-24T08:15:29.661Z,2.20
2022-11-24T08:18:15.253Z,2.20
2022-11-24T08:21:01.035Z,2.50
2022-11-24T08:23:46.986Z,2.30
2022-11-24T08:26:32.284Z,2.08
2022-11-24T08:29:17.859Z,1.95
2022-11-24T08:32:03.461Z,1.92
2022-11-24T08:34:48.700Z,1.48
2022-11-24T08:37:34.110Z,1.83
2022-11-24T08:40:20.077Z,2.20
2022-11-24T08:43:05.489Z,2.17
2022-11-24T08:45:51.030Z,1.90
2022-11-24T08:48:37.261Z,1.75
2022-11-24T08:51:26.087Z,2.10
2022-11-24T08:54:15.239Z,1.80
2022-11-24T08:57:00.725Z,1.60
2022-11-24T08:59:46.434Z,1.60
2022-11-24T09:02:32.044Z,1.50
2022-11-24T09:05:49.729Z,1.73
2022-11-24T09:08:22.689Z,1.70
2022-11-24T09:11:11.745Z,1.85
2022-11-24T09:13:57.801Z,2.00
2022-11-24T09:16:43.374Z,2.05
2022-11-24T09:19:28.723Z,2.15
2022-11-24T09:22:14.195Z,1.92
2022-11-24T09:24:59.750Z,1.95
2022-11-24T09:27:45.393Z,2.28
2022-11-24T09:30:30.949Z,2.00
2022-11-24T09:33:16.624Z,1.40
2022-11-24T09:36:03.148Z,1.92
2022-11-24T09:38:49.385Z,2.10
2022-11-24T09:41:44.498Z,2.38
2022-11-24T09:45:07.693Z,1.95
2022-11-24T09:48:30.111Z,2.70
2022-11-24T09:51:16.429Z,2.20
2022-11-24T09:54:09.416Z,2.33
2022-11-24T09:56:57.764Z,2.38
2022-11-24T09:59:43.618Z,1.83
2022-11-24T10:02:29.169Z,2.03
2022-11-24T10:05:14.787Z,1.80
2022-11-24T10:08:11.862Z,2.05
2022-11-24T10:11:00.958Z,2.25
2022-11-24T10:14:15.673Z,2.40
2022-11-24T10:17:14.023Z,2.35
2022-11-24T10:19:59.632Z,1.80
2022-11-24T10:22:52.357Z,1.67
2022-11-24T10:25:45.972Z,1.83
2022-11-24T10:28:48.964Z,2.15
2022-11-24T10:31:41.175Z,2.13
2022-11-24T10:34:34.505Z,2.22
2022-11-24T10:37:43.145Z,2.35
2022-11-24T10:40:59.605Z,2.22
2022-11-24T10:43:45.291Z,2.25
2022-11-24T10:46:36.258Z,4.55
2022-11-24T10:49:29.410Z,2.08
2022-11-24T10:52:18.822Z,2.22
2022-11-24T10:55:06.356Z,2.20
2022-11-24T10:57:51.758Z,1.92
2022-11-24T11:00:37.946Z,1.83
2022-11-24T11:03:27.554Z,1.60
2022-11-24T11:06:15.437Z,1.80
2022-11-24T11:09:07.108Z,1.90
2022-11-24T11:11:53.887Z,1.60
2022-11-24T11:14:39.466Z,1.85
2022-11-24T11:17:33.449Z,5.65
2022-11-24T11:20:30.304Z,3.72
2022-11-24T11:23:28.912Z,2.45
2022-11-24T11:26:32.510Z,2.55
2022-11-24T11:35:34.278Z,1.90
2022-11-24T11:38:20.701Z,2.20
2022-11-24T11:41:10.815Z,2.28
2022-11-24T11:44:04.617Z,2.38
2022-11-24T11:46:50.170Z,2.33
2022-11-24T11:49:38.150Z,2.03
2022-11-24T11:52:53.715Z,1.75
2022-11-24T11:55:46.607Z,2.00
2022-11-24T11:58:41.161Z,2.22
2022-11-24T12:01:32.591Z,2.03
2022-11-24T12:04:43.562Z,2.20
2022-11-24T12:07:45.443Z,2.10
2022-11-24T12:10:50.917Z,1.60
2022-11-24T12:14:11.979Z,1.80
2022-11-24T12:17:40.265Z,1.48
2022-11-24T12:20:44.989Z,1.50
2022-11-24T12:26:49.591Z,1.42
2022-11-24T12:29:47.017Z,1.83
2022-11-24T12:32:47.504Z,2.40
2022-11-24T12:35:37.372Z,1.40
2022-11-24T12:38:38.573Z,1.40
2022-11-24T12:41:43.018Z,1.40
2022-11-24T12:44:45.510Z,1.27
2022-11-24T12:47:43.225Z,1.77
2022-11-24T12:50:30.335Z,2.30
2022-11-24T12:53:29.400Z,2.15
2022-11-24T12:56:17.623Z,1.67
2022-11-24T12:59:29.781Z,1.80
2022-11-24T13:03:05.689Z,1.20
2022-11-24T13:06:07.472Z,1.55
2022-11-24T13:08:52.689Z,1.38
2022-11-24T13:11:42.335Z,2.35
2022-11-24T13:14:32.931Z,1.50
2022-11-24T13:17:48.813Z,1.33
2022-11-24T13:20:40.486Z,1.35
2022-11-24T13:23:27.831Z,1.80
2022-11-24T13:26:43.298Z,1.20
2022-11-24T13:29:28.880Z,1.40
2022-11-24T13:32:14.566Z,1.52
2022-11-24T13:35:12.766Z,1.52
2022-11-24T13:37:58.533Z,1.70
2022-11-24T13:40:59.686Z,1.25
2022-11-24T13:44:17.231Z,1.50
2022-11-24T13:47:26.341Z,1.27
2022-11-24T13:50:25.073Z,1.27
2022-11-24T13:53:34.969Z,1.40
2022-11-24T13:56:24.600Z,1.23
2022-11-24T13:59:34.139Z,1.73
2022-11-24T14:02:24.055Z,1.63
2022-11-24T14:05:14.623Z,1.77
2022-11-24T14:08:00.442Z,1.38
2022-11-24T14:10:46.167Z,1.60
2022-11-24T14:13:33.280Z,1.95
2022-11-24T14:16:24.214Z,1.30
2022-11-24T14:19:10.955Z,2.30
2022-11-24T14:21:56.288Z,1.80
2022-11-24T14:24:45.229Z,1.60
2022-11-24T14:27:37.047Z,1.85
2022-11-24T14:30:24.081Z,1.70
2022-11-24T14:33:13.445Z,1.65
2022-11-24T14:35:58.955Z,1.48
2022-11-24T14:38:44.561Z,1.52
2022-11-24T14:41:30.352Z,1.65
2022-11-24T14:44:18.870Z,1.65
2022-11-24T14:47:06.361Z,1.77
2022-11-24T14:49:52.552Z,1.63
2022-11-24T14:52:45.283Z,1.67
2022-11-24T14:55:33.056Z,1.50
2022-11-24T14:58:30.756Z,1.20
2022-11-24T15:01:36.445Z,1.63
2022-11-24T15:04:54.272Z,1.85
2022-11-24T15:07:31.415Z,1.70
2022-11-24T15:10:34.861Z,1.98
2022-11-24T15:13:23.575Z,2.88
2022-11-24T15:16:16.304Z,2.00
2022-11-24T15:19:02.669Z,1.80
2022-11-24T15:21:48.196Z,1.70
2022-11-24T15:24:33.925Z,1.83
2022-11-24T15:27:19.757Z,1.55
2022-11-24T15:30:06.010Z,2.20
2022-11-24T15:32:55.156Z,1.80
2022-11-24T15:35:40.471Z,1.75
2022-11-24T15:38:25.706Z,2.10
2022-11-24T15:41:21.580Z,1.80
2022-11-24T15:44:08.309Z,1.90
2022-11-24T15:46:55.331Z,1.50
2022-11-24T15:49:40.717Z,1.98
2022-11-24T15:52:26.229Z,2.00
2022-11-24T15:55:20.659Z,2.00
2022-11-24T15:58:05.872Z,1.90
2022-11-24T16:00:53.629Z,2.03
2022-11-24T16:03:47.117Z,2.17
2022-11-24T16:06:33.009Z,2.20
2022-11-24T16:09:18.436Z,1.73
2022-11-24T16:12:04.059Z,2.40
2022-11-24T16:14:49.546Z,2.20
2022-11-24T16:17:34.760Z,2.47
2022-11-24T16:20:20.527Z,2.30
2022-11-24T16:23:06.478Z,2.08
2022-11-24T16:25:52.175Z,2.25
2022-11-24T16:28:37.363Z,2.38
2022-11-24T16:31:23.750Z,2.10
2022-11-24T16:34:08.973Z,2.08
2022-11-24T16:36:54.469Z,2.30
2022-11-24T16:39:39.997Z,2.42
2022-11-24T16:42:25.535Z,2.45
2022-11-24T16:45:12.911Z,2.40
2022-11-24T16:48:00.224Z,2.75
2022-11-24T16:50:45.645Z,2.30
2022-11-24T16:53:31.141Z,2.20
2022-11-24T16:56:17.555Z,2.55
2022-11-24T16:59:02.837Z,2.30
2022-11-24T17:01:50.591Z,2.80
2022-11-24T17:04:36.714Z,2.30
2022-11-24T17:07:22.591Z,2.55
2022-11-24T17:10:08.455Z,2.00
2022-11-24T17:12:53.905Z,2.17
2022-11-24T17:15:46.221Z,2.70
2022-11-24T17:18:34.522Z,2.50
2022-11-24T17:21:22.742Z,2.33
2022-11-24T17:24:11.870Z,2.47
2022-11-24T17:26:57.380Z,2.67
2022-11-24T17:29:42.939Z,3.08
2022-11-24T17:32:28.469Z,2.63
2022-11-24T17:35:13.990Z,2.80
2022-11-24T17:38:00.806Z,2.58
2022-11-24T17:40:47.837Z,2.53
2022-11-24T17:43:33.309Z,2.63
2022-11-24T17:46:19.311Z,3.38
2022-11-24T17:49:06.663Z,3.00
2022-11-24T17:51:52.263Z,3.50
2022-11-24T17:54:56.559Z,3.47
2022-11-24T17:57:42.214Z,3.50
2022-11-24T18:00:27.771Z,3.55
2022-11-24T18:03:13.099Z,3.60
2022-11-24T18:06:05.353Z,3.42
2022-11-24T18:08:51.161Z,3.40
2022-11-24T18:11:36.705Z,3.70
2022-11-24T18:14:21.965Z,3.20
2022-11-24T18:17:07.606Z,3.40
2022-11-24T18:19:53.423Z,3.80
2022-11-24T18:31:18.518Z,3.72
2022-11-24T18:34:05.351Z,4.88
2022-11-24T18:36:52.526Z,4.10
2022-11-24T18:39:42.003Z,4.30
2022-11-24T18:42:29.188Z,4.17
2022-11-24T18:45:14.414Z,4.00
2022-11-24T18:47:59.991Z,3.67
2022-11-24T18:50:56.541Z,4.22
2022-11-24T18:53:43.903Z,4.00
2022-11-24T18:56:29.408Z,4.57
2022-11-24T18:59:14.679Z,6.10
2022-11-24T19:02:00.119Z,5.87
2022-11-24T19:04:45.656Z,4.70
2022-11-24T19:07:31.105Z,4.70
2022-11-24T19:10:16.274Z,4.10
2022-11-24T19:13:01.900Z,3.80
2022-11-24T19:15:48.519Z,3.80
2022-11-24T19:18:33.880Z,3.87
2022-11-24T19:21:20.258Z,3.77
2022-11-24T19:24:07.096Z,3.80
2022-11-24T19:26:54.241Z,3.80
2022-11-24T19:29:43.066Z,4.27
2022-11-24T19:32:31.349Z,4.60
2022-11-24T19:35:16.686Z,4.93
2022-11-24T19:38:02.031Z,3.97
2022-11-24T19:40:47.451Z,4.13
2022-11-24T19:43:34.562Z,4.43
2022-11-24T19:46:21.516Z,4.47
2022-11-24T19:49:08.842Z,4.13
2022-11-24T19:51:54.105Z,5.07
2022-11-24T19:54:39.846Z,4.83
2022-11-24T19:57:25.169Z,4.60
2022-11-24T20:00:11.476Z,4.43
2022-11-24T20:02:56.817Z,4.50
2022-11-24T20:05:42.223Z,4.30
2022-11-24T20:08:32.392Z,4.47
2022-11-24T20:11:19.677Z,4.80
2022-11-24T20:14:05.876Z,4.77
2022-11-24T20:16:51.408Z,5.10
2022-11-24T20:19:36.704Z,5.20
2022-11-24T20:22:21.900Z,4.60
2022-11-24T20:25:08.092Z,3.97
2022-11-24T20:27:53.631Z,4.23
2022-11-24T20:30:38.882Z,4.47
2022-11-24T20:33:24.295Z,3.90
2022-11-24T20:36:17.796Z,4.73
2022-11-24T20:39:05.928Z,4.17
2022-11-24T20:41:51.993Z,4.13
2022-11-24T20:44:37.794Z,4.30
2022-11-24T20:47:23.222Z,3.90
2022-11-24T20:50:09.008Z,3.97
2022-11-24T20:52:54.513Z,4.10
2022-11-24T20:55:40.080Z,4.67
2022-11-24T20:58:25.686Z,4.00
2022-11-24T21:01:14.334Z,4.83
2022-11-24T21:04:00.888Z,4.97
2022-11-24T21:06:46.529Z,4.83
2022-11-24T21:09:31.848Z,4.57
2022-11-24T21:12:17.783Z,3.73
2022-11-24T21:15:03.573Z,4.30
2022-11-24T21:17:48.904Z,4.17
2022-11-24T21:20:34.613Z,4.60
2022-11-24T21:23:20.573Z,3.90
2022-11-24T21:26:13.088Z,3.63
2022-11-24T21:29:00.212Z,3.78
2022-11-24T21:31:45.895Z,4.03
2022-11-24T21:34:31.463Z,3.77
2022-11-24T21:37:18.240Z,4.10
2022-11-24T21:40:04.016Z,3.80
2022-11-24T21:42:49.419Z,4.40
2022-11-24T21:45:35.308Z,4.20
2022-11-24T21:48:20.543Z,4.80
2022-11-24T21:51:08.522Z,4.00
2022-11-24T21:53:54.575Z,4.13
2022-11-24T21:56:40.099Z,4.23
2022-11-24T21:59:25.864Z,4.13
2022-11-24T22:02:13.264Z,4.87
2022-11-24T22:04:58.988Z,4.55
2022-11-24T22:07:44.437Z,3.97
2022-11-24T22:10:29.899Z,4.23
2022-11-24T22:13:15.882Z,4.40
2022-11-24T22:16:07.307Z,3.50
2022-11-24T22:18:53.020Z,3.60
2022-11-24T22:21:38.334Z,3.97
2022-11-24T22:24:27.338Z,3.97
2022-11-24T22:27:12.762Z,4.20
2022-11-24T22:29:58.157Z,4.33
2022-11-24T22:32:43.872Z,4.10
2022-11-24T22:35:29.435Z,4.60
2022-11-24T22:38:14.721Z,4.20
2022-11-24T22:41:08.455Z,4.20
2022-11-24T22:43:54.432Z,4.37
2022-11-24T22:46:39.933Z,4.87
2022-11-24T22:49:25.444Z,4.63
2022-11-24T22:52:10.639Z,4.07
2022-11-24T22:54:56.189Z,4.60
2022-11-24T22:57:46.045Z,4.30
2022-11-24T23:00:33.332Z,3.60
2022-11-24T23:03:18.735Z,4.00
2022-11-24T23:06:06.910Z,4.10
2022-11-24T23:08:53.245Z,3.80
2022-11-24T23:11:40.376Z,4.50
2022-11-24T23:14:26.790Z,4.40
2022-11-24T23:17:12.382Z,4.33
2022-11-24T23:19:57.708Z,4.60
2022-11-24T23:22:43.662Z,4.17
2022-11-24T23:25:29.094Z,4.70
2022-11-24T23:28:14.700Z,4.20
2022-11-24T23:31:05.340Z,5.20
2022-11-24T23:33:50.919Z,4.70
2022-11-24T23:36:36.544Z,4.57
2022-11-24T23:39:22.131Z,4.40
2022-11-24T23:42:07.580Z,4.50
2022-11-24T23:44:52.988Z,3.97
2022-11-24T23:47:38.627Z,4.50
2022-11-24T23:50:23.896Z,4.47
2022-11-24T23:53:09.670Z,4.33
2022-11-24T23:55:55.502Z,4.10
2022-11-24T23:58:41.028Z,4.30
